Sakaide Maru — 3EYR6 — position and weather

sailwx.info

Track history (hours):
 
Tides and Currents Weather Stations Pressure Air Temp Water Temp Dewpoint Dewpoint Depression Visibility Wind Speed Wind Dir Waves Ship Positions

Sakaide Maru

Last reported at 2014-Oct-24 07:22 UTC. Time now 2014-Oct-24 21:24 UTC.
Position N 33°60' E 134°58'.

Length 255 m; draft 8.4 m.

Type: Cargo ship. MMSI: 354898000.

Date/timePositionNaut miles runAvg speedWind from/ knotsBaromVisibWave heightAir tempDewpointWater temp
2014-Oct-24 07:22N 33°60' E 134°58'1113.7
2014-Oct-24 06:34N 34°11' E 134°57'1412.6
2014-Oct-24 05:28N 34°24' E 135°01'1111.1
2014-Oct-24 04:31N 34°34' E 135°05'1111.4
2014-Oct-24 03:33N 34°35' E 134°52'1413.7
2014-Oct-24 02:33N 34°29' E 134°37'  
2014-Oct-17 22:33N 34°35' E 134°52'1110.9
2014-Oct-17 21:33N 34°35' E 135°06'6 6.1
2014-Oct-17 20:33N 34°29' E 135°06'1110.5
2014-Oct-17 19:33N 34°20' E 135°01'1010.3
2014-Oct-17 18:34N 34°09' E 134°60'6 6.0
2014-Oct-17 17:33N 34°03' E 134°59'  
Track history (hours):
 
Tides and Currents Weather Stations Pressure Air Temp Water Temp Dewpoint Dewpoint Depression Visibility Wind Speed Wind Dir Waves Ship Positions

Sakaide Maru

Last reported at 2014-Oct-24 07:22 UTC. Time now 2014-Oct-24 21:24 UTC.
Position N 33°60' E 134°58'.

Length 255 m; draft 8.4 m.

Type: Cargo ship. MMSI: 354898000.

Date/timePositionNaut miles runAvg speedWind from/ knotsBaromVisibWave heightAir tempDewpointWater temp
2014-Oct-24 07:22N 33°60' E 134°58'1113.7
2014-Oct-24 06:34N 34°11' E 134°57'1412.6
2014-Oct-24 05:28N 34°24' E 135°01'1111.1
2014-Oct-24 04:31N 34°34' E 135°05'1111.4
2014-Oct-24 03:33N 34°35' E 134°52'1413.7
2014-Oct-24 02:33N 34°29' E 134°37'  
2014-Oct-17 22:33N 34°35' E 134°52'1110.9
2014-Oct-17 21:33N 34°35' E 135°06'6 6.1
2014-Oct-17 20:33N 34°29' E 135°06'1110.5
2014-Oct-17 19:33N 34°20' E 135°01'1010.3
2014-Oct-17 18:34N 34°09' E 134°60'6 6.0
2014-Oct-17 17:33N 34°03' E 134°59'  

Dump ship's entire track history